sensor_id;sensor_type;location;lat;lon;timestamp;pressure;altitude;pressure_sealevel;temperature;humidity
11223;BME280;5668;52.012;8.724;2023-03-19T00:00:13;99812.44;;;12.65;91.15
11223;BME280;5668;52.012;8.724;2023-03-19T00:02:42;99809.59;;;12.68;91.33
11223;BME280;5668;52.012;8.724;2023-03-19T00:05:14;99806.84;;;12.70;91.38
11223;BME280;5668;52.012;8.724;2023-03-19T00:07:42;99810.00;;;12.73;91.23
11223;BME280;5668;52.012;8.724;2023-03-19T00:10:11;99812.72;;;12.72;91.47
11223;BME280;5668;52.012;8.724;2023-03-19T00:12:39;99809.31;;;12.71;90.72
11223;BME280;5668;52.012;8.724;2023-03-19T00:15:07;99812.72;;;12.72;90.82
11223;BME280;5668;52.012;8.724;2023-03-19T00:17:40;99815.34;;;12.72;89.83
11223;BME280;5668;52.012;8.724;2023-03-19T00:20:10;99805.06;;;12.70;89.10
11223;BME280;5668;52.012;8.724;2023-03-19T00:22:39;99810.13;;;12.62;88.17
11223;BME280;5668;52.012;8.724;2023-03-19T00:25:07;99799.25;;;12.57;88.94
11223;BME280;5668;52.012;8.724;2023-03-19T00:27:35;99808.19;;;12.55;89.56
11223;BME280;5668;52.012;8.724;2023-03-19T00:30:02;99808.19;;;12.55;90.06
11223;BME280;5668;52.012;8.724;2023-03-19T00:32:29;99811.31;;;12.58;89.89
11223;BME280;5668;52.012;8.724;2023-03-19T00:34:59;99801.84;;;12.57;89.50
11223;BME280;5668;52.012;8.724;2023-03-19T00:37:27;99799.53;;;12.54;88.98
11223;BME280;5668;52.012;8.724;2023-03-19T00:39:54;99811.28;;;12.49;88.67
11223;BME280;5668;52.012;8.724;2023-03-19T00:42:21;99808.44;;;12.52;89.24
11223;BME280;5668;52.012;8.724;2023-03-19T00:44:49;99800.19;;;12.47;89.68
11223;BME280;5668;52.012;8.724;2023-03-19T00:47:16;99797.72;;;12.45;89.95
11223;BME280;5668;52.012;8.724;2023-03-19T00:49:44;99804.81;;;12.43;89.76
11223;BME280;5668;52.012;8.724;2023-03-19T00:52:12;99804.81;;;12.43;90.05
11223;BME280;5668;52.012;8.724;2023-03-19T00:54:40;99798.78;;;12.43;89.38
11223;BME280;5668;52.012;8.724;2023-03-19T00:57:07;99805.09;;;12.40;88.90
11223;BME280;5668;52.012;8.724;2023-03-19T00:59:35;99802.63;;;12.38;89.14
11223;BME280;5668;52.012;8.724;2023-03-19T01:02:02;99805.34;;;12.37;89.60
11223;BME280;5668;52.012;8.724;2023-03-19T01:04:30;99808.09;;;12.35;89.51
11223;BME280;5668;52.012;8.724;2023-03-19T01:06:57;99812.75;;;12.32;89.31
11223;BME280;5668;52.012;8.724;2023-03-19T01:09:26;99810.38;;;12.29;88.65
11223;BME280;5668;52.012;8.724;2023-03-19T01:11:53;99815.19;;;12.24;89.21
11223;BME280;5668;52.012;8.724;2023-03-19T01:14:21;99811.16;;;12.20;89.00
11223;BME280;5668;52.012;8.724;2023-03-19T01:16:48;99823.34;;;12.19;88.65
11223;BME280;5668;52.012;8.724;2023-03-19T01:19:16;99811.56;;;12.15;89.18
11223;BME280;5668;52.012;8.724;2023-03-19T01:21:43;99813.22;;;12.16;89.32
11223;BME280;5668;52.012;8.724;2023-03-19T01:24:11;99821.69;;;12.18;88.87
11223;BME280;5668;52.012;8.724;2023-03-19T01:26:40;99816.50;;;12.18;88.66
11223;BME280;5668;52.012;8.724;2023-03-19T01:29:08;99821.69;;;12.18;88.59
11223;BME280;5668;52.012;8.724;2023-03-19T01:31:35;99824.47;;;12.17;88.30
11223;BME280;5668;52.012;8.724;2023-03-19T01:34:03;99821.97;;;12.15;88.07
11223;BME280;5668;52.012;8.724;2023-03-19T01:36:30;99816.91;;;12.14;87.74
11223;BME280;5668;52.012;8.724;2023-03-19T01:38:58;99821.69;;;12.09;87.55
11223;BME280;5668;52.012;8.724;2023-03-19T01:41:25;99818.38;;;12.07;87.69
11223;BME280;5668;52.012;8.724;2023-03-19T01:43:54;99813.16;;;12.07;88.16
11223;BME280;5668;52.012;8.724;2023-03-19T01:46:26;99812.22;;;12.08;87.47
11223;BME280;5668;52.012;8.724;2023-03-19T01:48:55;99814.38;;;12.02;87.69
11223;BME280;5668;52.012;8.724;2023-03-19T01:51:26;99809.53;;;11.98;87.69
11223;BME280;5668;52.012;8.724;2023-03-19T01:53:57;99810.63;;;11.95;88.61
11223;BME280;5668;52.012;8.724;2023-03-19T01:56:28;99807.88;;;11.97;88.11
11223;BME280;5668;52.012;8.724;2023-03-19T01:59:02;99809.00;;;11.94;88.50
11223;BME280;5668;52.012;8.724;2023-03-19T02:01:32;99815.28;;;11.92;88.12
11223;BME280;5668;52.012;8.724;2023-03-19T02:04:03;99811.13;;;11.89;88.00
11223;BME280;5668;52.012;8.724;2023-03-19T02:06:31;99813.84;;;11.88;87.49
11223;BME280;5668;52.012;8.724;2023-03-19T02:08:59;99811.53;;;11.85;87.76
11223;BME280;5668;52.012;8.724;2023-03-19T02:11:27;99812.34;;;11.85;88.07
11223;BME280;5668;52.012;8.724;2023-03-19T02:13:54;99816.03;;;11.83;88.24
11223;BME280;5668;52.012;8.724;2023-03-19T02:16:23;99808.34;;;11.81;88.68
11223;BME280;5668;52.012;8.724;2023-03-19T02:18:52;99809.03;;;11.83;88.41
11223;BME280;5668;52.012;8.724;2023-03-19T02:21:19;99819.47;;;11.83;89.13
11223;BME280;5668;52.012;8.724;2023-03-19T02:23:52;99813.00;;;11.78;88.74
11223;BME280;5668;52.012;8.724;2023-03-19T02:26:23;99814.06;;;11.75;89.57
11223;BME280;5668;52.012;8.724;2023-03-19T02:28:53;99809.69;;;11.76;89.53
11223;BME280;5668;52.012;8.724;2023-03-19T02:31:20;99811.69;;;11.72;89.17
11223;BME280;5668;52.012;8.724;2023-03-19T02:33:57;99800.81;;;11.67;89.16
11223;BME280;5668;52.012;8.724;2023-03-19T02:36:27;99807.94;;;11.65;89.40
11223;BME280;5668;52.012;8.724;2023-03-19T02:38:57;99809.84;;;11.63;89.84
11223;BME280;5668;52.012;8.724;2023-03-19T02:41:29;99808.50;;;11.69;89.74
11223;BME280;5668;52.012;8.724;2023-03-19T02:43:58;99810.09;;;11.60;89.51
11223;BME280;5668;52.012;8.724;2023-03-19T02:46:28;99807.03;;;11.55;90.23
11223;BME280;5668;52.012;8.724;2023-03-19T02:48:55;99805.63;;;11.51;90.50
11223;BME280;5668;52.012;8.724;2023-03-19T02:51:22;99802.81;;;11.43;90.90
11223;BME280;5668;52.012;8.724;2023-03-19T02:53:50;99804.75;;;11.41;91.70
11223;BME280;5668;52.012;8.724;2023-03-19T02:56:17;99803.53;;;11.45;91.84
11223;BME280;5668;52.012;8.724;2023-03-19T02:58:45;99804.34;;;11.45;92.19
11223;BME280;5668;52.012;8.724;2023-03-19T03:01:13;99809.22;;;11.50;92.14
11223;BME280;5668;52.012;8.724;2023-03-19T03:03:40;99817.69;;;11.52;91.76
11223;BME280;5668;52.012;8.724;2023-03-19T03:06:07;99816.03;;;11.51;91.69
11223;BME280;5668;52.012;8.724;2023-03-19T03:08:34;99814.13;;;11.53;91.70
11223;BME280;5668;52.012;8.724;2023-03-19T03:11:03;99819.09;;;11.56;91.47
11223;BME280;5668;52.012;8.724;2023-03-19T03:13:30;99823.22;;;11.58;91.48
11223;BME280;5668;52.012;8.724;2023-03-19T03:15:59;99829.25;;;11.59;91.88
11223;BME280;5668;52.012;8.724;2023-03-19T03:18:26;99827.59;;;11.58;91.91
11223;BME280;5668;52.012;8.724;2023-03-19T03:20:54;99824.19;;;11.57;91.91
11223;BME280;5668;52.012;8.724;2023-03-19T03:23:21;99832.00;;;11.57;91.27
11223;BME280;5668;52.012;8.724;2023-03-19T03:25:49;99824.03;;;11.59;91.16
11223;BME280;5668;52.012;8.724;2023-03-19T03:28:17;99825.97;;;11.57;90.94
11223;BME280;5668;52.012;8.724;2023-03-19T03:30:45;99827.84;;;11.55;90.49
11223;BME280;5668;52.012;8.724;2023-03-19T03:33:14;99827.16;;;11.53;90.70
11223;BME280;5668;52.012;8.724;2023-03-19T03:35:42;99828.38;;;11.49;90.74
11223;BME280;5668;52.012;8.724;2023-03-19T03:38:09;99824.47;;;11.43;90.90
11223;BME280;5668;52.012;8.724;2023-03-19T03:40:37;99825.44;;;11.42;91.39
11223;BME280;5668;52.012;8.724;2023-03-19T03:43:05;99818.94;;;11.37;91.77
11223;BME280;5668;52.012;8.724;2023-03-19T03:45:32;99822.75;;;11.33;92.77
11223;BME280;5668;52.012;8.724;2023-03-19T03:47:59;99817.44;;;11.34;92.95
11223;BME280;5668;52.012;8.724;2023-03-19T03:50:28;99823.47;;;11.35;93.21
11223;BME280;5668;52.012;8.724;2023-03-19T03:52:55;99820.84;;;11.35;93.31
11223;BME280;5668;52.012;8.724;2023-03-19T03:55:22;99824.84;;;11.39;93.63
11223;BME280;5668;52.012;8.724;2023-03-19T03:57:49;99827.22;;;11.42;93.59
11223;BME280;5668;52.012;8.724;2023-03-19T04:00:17;99823.41;;;11.46;93.33
11223;BME280;5668;52.012;8.724;2023-03-19T04:02:44;99826.72;;;11.48;93.28
11223;BME280;5668;52.012;8.724;2023-03-19T04:05:12;99824.81;;;11.50;93.39
11223;BME280;5668;52.012;8.724;2023-03-19T04:07:40;99821.94;;;11.53;92.13
11223;BME280;5668;52.012;8.724;2023-03-19T04:10:09;99814.53;;;11.48;91.67
11223;BME280;5668;52.012;8.724;2023-03-19T04:12:38;99820.25;;;11.42;92.09
11223;BME280;5668;52.012;8.724;2023-03-19T04:15:08;99812.44;;;11.42;92.70
11223;BME280;5668;52.012;8.724;2023-03-19T04:17:35;99807.47;;;11.39;92.64
11223;BME280;5668;52.012;8.724;2023-03-19T04:20:05;99817.16;;;11.37;93.02
11223;BME280;5668;52.012;8.724;2023-03-19T04:22:34;99817.53;;;11.33;92.76
11223;BME280;5668;52.012;8.724;2023-03-19T04:25:03;99823.56;;;11.33;93.38
11223;BME280;5668;52.012;8.724;2023-03-19T04:27:33;99820.59;;;11.38;92.89
11223;BME280;5668;52.012;8.724;2023-03-19T04:30:00;99820.34;;;11.41;92.73
11223;BME280;5668;52.012;8.724;2023-03-19T04:32:27;99823.91;;;11.40;92.37
11223;BME280;5668;52.012;8.724;2023-03-19T04:34:54;99819.75;;;11.37;92.67
11223;BME280;5668;52.012;8.724;2023-03-19T04:37:23;99819.75;;;11.37;92.79
11223;BME280;5668;52.012;8.724;2023-03-19T04:39:50;99822.25;;;11.39;92.65
11223;BME280;5668;52.012;8.724;2023-03-19T04:42:21;99823.63;;;11.43;92.51
11223;BME280;5668;52.012;8.724;2023-03-19T04:44:49;99826.00;;;11.46;92.36
11223;BME280;5668;52.012;8.724;2023-03-19T04:47:17;99828.59;;;11.46;91.89
11223;BME280;5668;52.012;8.724;2023-03-19T04:49:45;99825.28;;;11.44;92.17
11223;BME280;5668;52.012;8.724;2023-03-19T04:52:12;99829.66;;;11.43;91.92
11223;BME280;5668;52.012;8.724;2023-03-19T04:54:39;99830.66;;;11.42;90.77
11223;BME280;5668;52.012;8.724;2023-03-19T04:57:07;99818.94;;;11.37;91.30
11223;BME280;5668;52.012;8.724;2023-03-19T04:59:35;99810.19;;;11.38;90.95
11223;BME280;5668;52.012;8.724;2023-03-19T05:02:03;99819.88;;;11.36;90.58
11223;BME280;5668;52.012;8.724;2023-03-19T05:04:30;99824.91;;;11.28;91.19
11223;BME280;5668;52.012;8.724;2023-03-19T05:06:57;99829.28;;;11.27;91.43
11223;BME280;5668;52.012;8.724;2023-03-19T05:09:24;99830.09;;;11.28;91.14
11223;BME280;5668;52.012;8.724;2023-03-19T05:11:52;99830.91;;;11.28;91.10
11223;BME280;5668;52.012;8.724;2023-03-19T05:14:19;99839.69;;;11.27;90.92
11223;BME280;5668;52.012;8.724;2023-03-19T05:16:47;99837.91;;;11.28;90.87
11223;BME280;5668;52.012;8.724;2023-03-19T05:19:15;99831.72;;;11.29;91.04
11223;BME280;5668;52.012;8.724;2023-03-19T05:21:42;99845.44;;;11.31;90.72
11223;BME280;5668;52.012;8.724;2023-03-19T05:24:09;99841.91;;;11.32;91.01
11223;BME280;5668;52.012;8.724;2023-03-19T05:26:37;99838.34;;;11.33;90.69
11223;BME280;5668;52.012;8.724;2023-03-19T05:29:04;99841.91;;;11.32;90.92
11223;BME280;5668;52.012;8.724;2023-03-19T05:31:35;99837.75;;;11.29;90.50
11223;BME280;5668;52.012;8.724;2023-03-19T05:34:04;99832.44;;;11.31;90.61
11223;BME280;5668;52.012;8.724;2023-03-19T05:36:31;99830.09;;;11.28;89.89
11223;BME280;5668;52.012;8.724;2023-03-19T05:38:59;99836.59;;;11.22;89.14
11223;BME280;5668;52.012;8.724;2023-03-19T05:41:26;99837.22;;;11.14;90.10
11223;BME280;5668;52.012;8.724;2023-03-19T05:43:54;99838.88;;;11.15;90.88
11223;BME280;5668;52.012;8.724;2023-03-19T05:46:21;99841.75;;;11.12;90.83
11223;BME280;5668;52.012;8.724;2023-03-19T05:48:49;99847.16;;;11.09;91.27
11223;BME280;5668;52.012;8.724;2023-03-19T05:51:17;99848.81;;;11.10;91.08
11223;BME280;5668;52.012;8.724;2023-03-19T05:53:45;99847.16;;;11.09;90.99
11223;BME280;5668;52.012;8.724;2023-03-19T05:56:12;99852.38;;;11.09;91.25
11223;BME280;5668;52.012;8.724;2023-03-19T05:58:39;99858.13;;;11.13;91.00
11223;BME280;5668;52.012;8.724;2023-03-19T06:01:07;99861.13;;;11.08;89.96
11223;BME280;5668;52.012;8.724;2023-03-19T06:03:34;99858.28;;;11.00;90.46
11223;BME280;5668;52.012;8.724;2023-03-19T06:06:01;99858.78;;;10.94;91.13
11223;BME280;5668;52.012;8.724;2023-03-19T06:08:29;99856.41;;;10.91;91.07
11223;BME280;5668;52.012;8.724;2023-03-19T06:10:57;99860.22;;;10.87;90.98
11223;BME280;5668;52.012;8.724;2023-03-19T06:13:24;99860.59;;;10.82;91.28
11223;BME280;5668;52.012;8.724;2023-03-19T06:15:52;99863.03;;;10.84;91.82
11223;BME280;5668;52.012;8.724;2023-03-19T06:18:19;99870.59;;;10.87;91.98
11223;BME280;5668;52.012;8.724;2023-03-19T06:20:46;99868.94;;;10.86;91.76
11223;BME280;5668;52.012;8.724;2023-03-19T06:23:14;99868.22;;;10.84;91.41
11223;BME280;5668;52.012;8.724;2023-03-19T06:25:42;99876.03;;;10.84;91.82
11223;BME280;5668;52.012;8.724;2023-03-19T06:28:10;99876.63;;;10.88;91.88
11223;BME280;5668;52.012;8.724;2023-03-19T06:30:37;99876.38;;;10.91;92.11
11223;BME280;5668;52.012;8.724;2023-03-19T06:33:04;99877.91;;;10.93;91.87
11223;BME280;5668;52.012;8.724;2023-03-19T06:35:32;99883.13;;;10.93;91.79
11223;BME280;5668;52.012;8.724;2023-03-19T06:37:59;99877.91;;;10.93;91.76
11223;BME280;5668;52.012;8.724;2023-03-19T06:40:27;99885.72;;;10.93;91.47
11223;BME280;5668;52.012;8.724;2023-03-19T06:42:55;99881.25;;;10.95;91.92
11223;BME280;5668;52.012;8.724;2023-03-19T06:45:23;99888.22;;;10.95;91.41
11223;BME280;5668;52.012;8.724;2023-03-19T06:47:50;99885.50;;;10.96;91.68
11223;BME280;5668;52.012;8.724;2023-03-19T06:50:19;99887.94;;;10.98;91.99
11223;BME280;5668;52.012;8.724;2023-03-19T06:52:46;99891.97;;;11.02;92.18
11223;BME280;5668;52.012;8.724;2023-03-19T06:55:14;99897.88;;;11.04;92.75
11223;BME280;5668;52.012;8.724;2023-03-19T06:57:41;99895.88;;;11.07;93.44
11223;BME280;5668;52.012;8.724;2023-03-19T07:00:11;99891.38;;;11.09;94.40
11223;BME280;5668;52.012;8.724;2023-03-19T07:02:39;99885.81;;;11.14;94.97
11223;BME280;5668;52.012;8.724;2023-03-19T07:05:07;99891.47;;;11.19;95.43
11223;BME280;5668;52.012;8.724;2023-03-19T07:07:34;99893.59;;;11.25;95.90
11223;BME280;5668;52.012;8.724;2023-03-19T07:10:02;99901.28;;;11.27;96.59
11223;BME280;5668;52.012;8.724;2023-03-19T07:12:29;99905.41;;;11.29;96.22
11223;BME280;5668;52.012;8.724;2023-03-19T07:14:57;99909.41;;;11.33;97.10
11223;BME280;5668;52.012;8.724;2023-03-19T07:17:25;99914.38;;;11.36;96.97
11223;BME280;5668;52.012;8.724;2023-03-19T07:19:52;99924.44;;;11.41;97.70
11223;BME280;5668;52.012;8.724;2023-03-19T07:22:20;99926.75;;;11.44;97.84
11223;BME280;5668;52.012;8.724;2023-03-19T07:24:47;99919.56;;;11.47;97.84
11223;BME280;5668;52.012;8.724;2023-03-19T07:27:14;99915.91;;;11.50;97.99
11223;BME280;5668;52.012;8.724;2023-03-19T07:29:41;99924.25;;;11.53;98.06
11223;BME280;5668;52.012;8.724;2023-03-19T07:32:09;99924.84;;;11.57;98.32
11223;BME280;5668;52.012;8.724;2023-03-19T07:34:38;99921.88;;;11.61;99.00
11223;BME280;5668;52.012;8.724;2023-03-19T07:37:06;99923.03;;;11.69;99.16
11223;BME280;5668;52.012;8.724;2023-03-19T07:39:33;99919.25;;;11.73;98.98
11223;BME280;5668;52.012;8.724;2023-03-19T07:42:00;99927.66;;;11.76;99.61
11223;BME280;5668;52.012;8.724;2023-03-19T07:44:28;99926.44;;;11.80;100.00
11223;BME280;5668;52.012;8.724;2023-03-19T07:46:55;99923.59;;;11.83;100.00
11223;BME280;5668;52.012;8.724;2023-03-19T07:49:22;99926.66;;;11.88;100.00
11223;BME280;5668;52.012;8.724;2023-03-19T07:51:51;99930.66;;;11.92;100.00
11223;BME280;5668;52.012;8.724;2023-03-19T07:54:18;99929.34;;;11.98;100.00
11223;BME280;5668;52.012;8.724;2023-03-19T07:56:46;99924.72;;;12.01;100.00
11223;BME280;5668;52.012;8.724;2023-03-19T07:59:13;99925.88;;;12.09;100.00
11223;BME280;5668;52.012;8.724;2023-03-19T08:01:40;99922.03;;;12.13;100.00
11223;BME280;5668;52.012;8.724;2023-03-19T08:04:08;99926.19;;;12.15;100.00
11223;BME280;5668;52.012;8.724;2023-03-19T08:06:36;99925.09;;;12.18;100.00
11223;BME280;5668;52.012;8.724;2023-03-19T08:09:06;99933.38;;;12.23;100.00
11223;BME280;5668;52.012;8.724;2023-03-19T08:11:34;99926.09;;;12.26;100.00
11223;BME280;5668;52.012;8.724;2023-03-19T08:14:02;99939.59;;;12.31;100.00
11223;BME280;5668;52.012;8.724;2023-03-19T08:16:29;99943.59;;;12.35;100.00
11223;BME280;5668;52.012;8.724;2023-03-19T08:18:57;99946.78;;;12.39;100.00
11223;BME280;5668;52.012;8.724;2023-03-19T08:21:24;99935.94;;;12.44;100.00
11223;BME280;5668;52.012;8.724;2023-03-19T08:23:52;99938.16;;;12.48;100.00
11223;BME280;5668;52.012;8.724;2023-03-19T08:26:20;99940.41;;;12.53;100.00
11223;BME280;5668;52.012;8.724;2023-03-19T08:28:48;99949.75;;;12.55;100.00
11223;BME280;5668;52.012;8.724;2023-03-19T08:31:15;99954.69;;;12.58;100.00
11223;BME280;5668;52.012;8.724;2023-03-19T08:33:42;99963.78;;;12.64;100.00
11223;BME280;5668;52.012;8.724;2023-03-19T08:36:12;99964.13;;;12.70;100.00
11223;BME280;5668;52.012;8.724;2023-03-19T08:38:40;99958.63;;;12.73;100.00
11223;BME280;5668;52.012;8.724;2023-03-19T08:41:08;99961.53;;;12.80;100.00
11223;BME280;5668;52.012;8.724;2023-03-19T08:43:37;99963.63;;;12.86;100.00
11223;BME280;5668;52.012;8.724;2023-03-19T08:46:05;99952.81;;;12.91;99.69
11223;BME280;5668;52.012;8.724;2023-03-19T08:48:32;99957.75;;;12.94;98.61
11223;BME280;5668;52.012;8.724;2023-03-19T08:51:01;99959.28;;;12.96;97.22
11223;BME280;5668;52.012;8.724;2023-03-19T08:53:29;99962.19;;;13.03;95.96
11223;BME280;5668;52.012;8.724;2023-03-19T08:55:59;99961.53;;;13.10;94.82
11223;BME280;5668;52.012;8.724;2023-03-19T08:58:27;99956.91;;;13.14;94.33
11223;BME280;5668;52.012;8.724;2023-03-19T09:01:00;99963.50;;;13.18;93.83
11223;BME280;5668;52.012;8.724;2023-03-19T09:03:28;99953.38;;;13.25;93.95
11223;BME280;5668;52.012;8.724;2023-03-19T09:05:57;99956.25;;;13.31;93.15
11223;BME280;5668;52.012;8.724;2023-03-19T09:08:25;99952.84;;;13.40;92.08
11223;BME280;5668;52.012;8.724;2023-03-19T09:10:53;99960.31;;;13.45;91.71
11223;BME280;5668;52.012;8.724;2023-03-19T09:13:20;99952.75;;;13.51;92.20
11223;BME280;5668;52.012;8.724;2023-03-19T09:15:48;99959.78;;;13.61;91.66
11223;BME280;5668;52.012;8.724;2023-03-19T09:18:17;99963.22;;;13.71;91.92
11223;BME280;5668;52.012;8.724;2023-03-19T09:20:45;99960.88;;;13.77;92.04
11223;BME280;5668;52.012;8.724;2023-03-19T09:23:13;99961.72;;;13.87;92.52
11223;BME280;5668;52.012;8.724;2023-03-19T09:25:40;99963.41;;;13.98;92.29
11223;BME280;5668;52.012;8.724;2023-03-19T09:28:07;99965.84;;;14.09;91.43
11223;BME280;5668;52.012;8.724;2023-03-19T09:30:34;99966.94;;;14.16;91.00
11223;BME280;5668;52.012;8.724;2023-03-19T09:33:03;99967.09;;;14.24;90.96
11223;BME280;5668;52.012;8.724;2023-03-19T09:35:32;99974.09;;;14.33;90.15
11223;BME280;5668;52.012;8.724;2023-03-19T09:38:00;99968.34;;;14.40;87.86
11223;BME280;5668;52.012;8.724;2023-03-19T09:40:32;99982.09;;;14.42;87.58
11223;BME280;5668;52.012;8.724;2023-03-19T09:43:11;99975.91;;;14.43;88.67
11223;BME280;5668;52.012;8.724;2023-03-19T09:45:45;99972.44;;;14.52;89.66
11223;BME280;5668;52.012;8.724;2023-03-19T09:48:16;99976.56;;;14.64;89.89
11223;BME280;5668;52.012;8.724;2023-03-19T09:50:47;99980.94;;;14.73;89.64
11223;BME280;5668;52.012;8.724;2023-03-19T09:53:23;99974.84;;;14.82;88.27
11223;BME280;5668;52.012;8.724;2023-03-19T09:55:57;99972.63;;;14.87;88.12
11223;BME280;5668;52.012;8.724;2023-03-19T09:58:29;99977.44;;;14.92;87.33
11223;BME280;5668;52.012;8.724;2023-03-19T10:00:58;99978.38;;;15.00;86.84
11223;BME280;5668;52.012;8.724;2023-03-19T10:03:37;99973.00;;;15.02;86.42
11223;BME280;5668;52.012;8.724;2023-03-19T10:06:25;99967.63;;;15.03;86.15
11223;BME280;5668;52.012;8.724;2023-03-19T10:09:04;99973.09;;;15.10;84.87
11223;BME280;5668;52.012;8.724;2023-03-19T10:11:47;99976.69;;;15.09;85.40
11223;BME280;5668;52.012;8.724;2023-03-19T10:14:40;99978.28;;;15.20;85.65
11223;BME280;5668;52.012;8.724;2023-03-19T10:17:17;99984.75;;;15.25;86.43
11223;BME280;5668;52.012;8.724;2023-03-19T10:19:50;99991.44;;;15.37;85.96
11223;BME280;5668;52.012;8.724;2023-03-19T10:22:23;99989.41;;;15.49;85.87
11223;BME280;5668;52.012;8.724;2023-03-19T10:24:53;99995.78;;;15.56;85.75
11223;BME280;5668;52.012;8.724;2023-03-19T10:27:26;99995.69;;;15.66;85.87
11223;BME280;5668;52.012;8.724;2023-03-19T10:29:55;99983.22;;;15.77;85.30
11223;BME280;5668;52.012;8.724;2023-03-19T10:32:28;99978.06;;;15.85;85.04
11223;BME280;5668;52.012;8.724;2023-03-19T10:35:04;99984.19;;;15.94;84.24
11223;BME280;5668;52.012;8.724;2023-03-19T10:37:36;99980.81;;;16.02;83.57
11223;BME280;5668;52.012;8.724;2023-03-19T10:40:17;99980.25;;;16.08;83.13
11223;BME280;5668;52.012;8.724;2023-03-19T10:42:55;99989.81;;;16.17;83.17
11223;BME280;5668;52.012;8.724;2023-03-19T10:45:30;99984.34;;;16.28;79.69
11223;BME280;5668;52.012;8.724;2023-03-19T10:48:00;99998.28;;;16.29;80.12
11223;BME280;5668;52.012;8.724;2023-03-19T10:50:30;99995.50;;;16.30;79.77
11223;BME280;5668;52.012;8.724;2023-03-19T10:53:05;99996.56;;;16.37;80.73
11223;BME280;5668;52.012;8.724;2023-03-19T10:55:33;99994.81;;;16.46;79.57
11223;BME280;5668;52.012;8.724;2023-03-19T10:58:06;99994.22;;;16.52;79.11
11223;BME280;5668;52.012;8.724;2023-03-19T11:00:41;99997.88;;;16.59;79.09
11223;BME280;5668;52.012;8.724;2023-03-19T11:03:28;99994.19;;;16.70;79.82
11223;BME280;5668;52.012;8.724;2023-03-19T11:06:04;99998.22;;;16.82;80.45
11223;BME280;5668;52.012;8.724;2023-03-19T11:08:36;100000.59;;;17.01;80.29
11223;BME280;5668;52.012;8.724;2023-03-19T11:11:03;100007.41;;;17.12;77.77
11223;BME280;5668;52.012;8.724;2023-03-19T11:13:33;100009.69;;;17.15;77.14
11223;BME280;5668;52.012;8.724;2023-03-19T11:16:01;100017.44;;;17.16;77.55
11223;BME280;5668;52.012;8.724;2023-03-19T11:18:36;100015.97;;;17.14;74.29
11223;BME280;5668;52.012;8.724;2023-03-19T11:21:13;100017.72;;;17.05;74.67
11223;BME280;5668;52.012;8.724;2023-03-19T11:23:52;100017.97;;;16.94;75.20
11223;BME280;5668;52.012;8.724;2023-03-19T11:26:19;100022.50;;;16.84;74.83
11223;BME280;5668;52.012;8.724;2023-03-19T11:28:50;100026.19;;;16.73;75.54
11223;BME280;5668;52.012;8.724;2023-03-19T11:31:22;100026.13;;;16.65;75.44
11223;BME280;5668;52.012;8.724;2023-03-19T11:33:59;100028.53;;;16.58;75.12
11223;BME280;5668;52.012;8.724;2023-03-19T11:36:37;100026.50;;;16.52;75.96
11223;BME280;5668;52.012;8.724;2023-03-19T11:39:18;100025.28;;;16.47;75.84
11223;BME280;5668;52.012;8.724;2023-03-19T11:41:57;100024.13;;;16.41;75.71
11223;BME280;5668;52.012;8.724;2023-03-19T11:44:36;100029.97;;;16.35;76.50
11223;BME280;5668;52.012;8.724;2023-03-19T11:47:11;100028.16;;;16.36;76.44
11223;BME280;5668;52.012;8.724;2023-03-19T11:50:01;100019.47;;;16.35;77.06
11223;BME280;5668;52.012;8.724;2023-03-19T11:52:37;100023.91;;;16.35;77.48
11223;BME280;5668;52.012;8.724;2023-03-19T11:55:20;100025.00;;;16.32;77.04
11223;BME280;5668;52.012;8.724;2023-03-19T11:58:02;100028.94;;;16.28;76.87
11223;BME280;5668;52.012;8.724;2023-03-19T12:00:38;100028.72;;;16.21;76.97
11223;BME280;5668;52.012;8.724;2023-03-19T12:06:12;100022.75;;;16.02;78.80
11223;BME280;5668;52.012;8.724;2023-03-19T12:08:48;100024.13;;;16.06;79.23
11223;BME280;5668;52.012;8.724;2023-03-19T12:11:22;100031.03;;;16.07;79.50
11223;BME280;5668;52.012;8.724;2023-03-19T12:14:01;100028.09;;;16.10;80.00
11223;BME280;5668;52.012;8.724;2023-03-19T12:16:40;100032.06;;;16.14;79.89
11223;BME280;5668;52.012;8.724;2023-03-19T12:19:38;100027.50;;;16.16;79.34
11223;BME280;5668;52.012;8.724;2023-03-19T12:22:21;100027.66;;;16.14;79.47
11223;BME280;5668;52.012;8.724;2023-03-19T12:25:04;100022.91;;;16.18;79.59
11223;BME280;5668;52.012;8.724;2023-03-19T12:27:38;100023.31;;;16.23;79.12
11223;BME280;5668;52.012;8.724;2023-03-19T12:30:17;100017.06;;;16.24;78.66
11223;BME280;5668;52.012;8.724;2023-03-19T12:32:58;100016.78;;;16.27;78.96
11223;BME280;5668;52.012;8.724;2023-03-19T12:35:32;100017.31;;;16.31;79.17
11223;BME280;5668;52.012;8.724;2023-03-19T12:38:03;100011.25;;;16.30;78.17
11223;BME280;5668;52.012;8.724;2023-03-19T12:40:36;100005.47;;;16.26;78.98
11223;BME280;5668;52.012;8.724;2023-03-19T12:43:16;100011.81;;;16.24;78.54
11223;BME280;5668;52.012;8.724;2023-03-19T12:45:46;100009.16;;;16.16;78.50
11223;BME280;5668;52.012;8.724;2023-03-19T12:48:17;100003.91;;;16.16;78.39
11223;BME280;5668;52.012;8.724;2023-03-19T12:50:51;100009.16;;;16.16;78.21
11223;BME280;5668;52.012;8.724;2023-03-19T12:53:29;100007.50;;;16.15;77.77
11223;BME280;5668;52.012;8.724;2023-03-19T12:56:05;100007.66;;;16.13;78.38
11223;BME280;5668;52.012;8.724;2023-03-19T12:58:45;100009.44;;;16.13;79.56
11223;BME280;5668;52.012;8.724;2023-03-19T13:01:18;100013.03;;;16.12;80.39
11223;BME280;5668;52.012;8.724;2023-03-19T13:03:54;100020.69;;;16.05;80.91
11223;BME280;5668;52.012;8.724;2023-03-19T13:06:27;100018.13;;;15.96;81.90
11223;BME280;5668;52.012;8.724;2023-03-19T13:09:02;100020.09;;;15.94;83.02
11223;BME280;5668;52.012;8.724;2023-03-19T13:11:35;100023.13;;;15.89;84.74
11223;BME280;5668;52.012;8.724;2023-03-19T13:14:13;100009.34;;;15.87;85.82
11223;BME280;5668;52.012;8.724;2023-03-19T13:16:47;100017.66;;;15.82;86.83
11223;BME280;5668;52.012;8.724;2023-03-19T13:19:20;100003.88;;;15.80;87.68
11223;BME280;5668;52.012;8.724;2023-03-19T13:21:53;100017.66;;;15.82;88.45
11223;BME280;5668;52.012;8.724;2023-03-19T13:24:25;100010.78;;;15.81;89.21